Current | Forecast
Updated: 10:12 AM JST on April 23, 2018
Observed at Shimofusa AB, Japan
Temperature 61°F
Humidity 77%
Dew Point 54°F
Wind ENE at 10 mph
Pressure 30.18 in (Rising)
Conditions Mostly Cloudy
Visibility 5.6 miles
UV 5 out of 16
Clouds Mostly Cloudy (BKN) : 1500 ft
Mostly Cloudy (BKN) : 2000 ft
Yesterday's Maximum 81°F
Yesterday's Minimum 55°F approx.
Yesterday's Cooling Degree Days 3 approx.
Sunrise4:56 AM JST
Sunset6:19 PM JST
Moon Rise11:09 AM JST
Moon Set12:38 AM JST
Moon PhaseMoon Phase
First Quarter
Raw METARSPECI RJTL 230112Z 06009KT 020V100 9000 BKN015 BKN020 16/12 Q1022 RMK 6SC015 7SC020 A3018


Monday
. High: 77° F.
Tuesday
. High: 77° F.
Wednesday
. High: 64° F.
Thursday
. High: 71° F.
Friday
. High: 75° F.
Saturday
. High: 73° F.
Sunday
. High: 73° F.
Monday
. High: 71° F.

Units: English | Metric

Find the Weather for any City, State or Zipcode, or Country:

U.S. State List | Severe Weather | Tropical Storms | Ski Conditions
United States | Canada | Central America | South America | Asia | Europe | Australia | Africa | Islands

Weather Underground

© Copyright 2018
The Weather Company, LLC